createdAt,value
2022-11-01T16:45:05.547Z,20.75
2022-11-01T16:49:47.277Z,20.72
2022-11-01T16:54:38.488Z,20.67
2022-11-01T16:59:30.763Z,20.68
2022-11-01T17:04:23.273Z,20.67
2022-11-01T17:09:17.964Z,20.64
2022-11-01T17:14:09.987Z,20.62
2022-11-01T17:19:02.638Z,20.61
2022-11-01T17:23:55.199Z,20.59
2022-11-01T17:28:49.561Z,20.58
2022-11-01T17:33:40.311Z,20.57
2022-11-01T17:38:32.908Z,20.56
2022-11-01T17:43:25.422Z,20.58
2022-11-01T17:48:17.934Z,20.57
2022-11-01T17:53:10.457Z,20.56
2022-11-01T17:58:03.377Z,20.54
2022-11-01T18:02:55.851Z,20.55
2022-11-01T18:07:48.250Z,20.52
2022-11-01T18:12:40.770Z,20.51
2022-11-01T18:17:33.234Z,20.5
2022-11-01T18:22:25.902Z,20.5
2022-11-01T18:27:18.117Z,20.5
2022-11-01T18:32:10.997Z,20.49
2022-11-01T18:37:03.529Z,20.48
2022-11-01T18:46:48.056Z,20.48
2022-11-01T18:51:40.518Z,20.46
2022-11-01T18:56:33.076Z,20.47
2022-11-01T19:01:25.992Z,20.46
2022-11-01T19:06:18.155Z,20.44
2022-11-01T19:11:10.681Z,20.44
2022-11-01T19:16:08.450Z,20.42
2022-11-01T19:20:56.007Z,20.44
2022-11-01T19:25:48.700Z,20.43
2022-11-01T19:30:41.242Z,20.42
2022-11-01T19:35:33.730Z,20.42
2022-11-01T19:40:27.787Z,20.41
2022-11-01T19:45:18.941Z,20.44
2022-11-01T19:50:11.358Z,20.42
2022-11-01T19:55:03.909Z,20.43
2022-11-01T19:59:56.520Z,20.43
2022-11-01T20:04:49.118Z,20.41
2022-11-01T20:09:41.742Z,20.41
2022-11-01T20:14:34.341Z,20.4
2022-11-01T20:19:26.939Z,20.41
2022-11-01T20:24:19.815Z,20.4
2022-11-01T20:29:13.418Z,20.41
2022-11-01T20:34:05.170Z,20.41
2022-11-01T20:38:57.634Z,20.41
2022-11-01T20:43:50.373Z,20.39
2022-11-01T20:48:42.959Z,20.38
2022-11-01T20:53:35.770Z,20.37
2022-11-01T20:58:28.307Z,20.38
2022-11-01T21:03:20.801Z,20.37
2022-11-01T21:08:13.393Z,20.4
2022-11-01T21:13:06.294Z,20.4
2022-11-01T21:17:58.374Z,20.36
2022-11-01T21:22:51.041Z,20.33
2022-11-01T21:27:43.795Z,20.31
2022-11-01T21:32:36.983Z,20.31
2022-11-01T21:37:28.723Z,20.29
2022-11-01T21:42:21.197Z,20.27
2022-11-01T21:47:13.999Z,20.26
2022-11-01T21:52:06.504Z,20.25
2022-11-01T21:56:58.816Z,20.23
2022-11-01T22:01:51.898Z,20.26
2022-11-01T22:06:44.087Z,20.24
2022-11-01T22:11:36.736Z,20.23
2022-11-01T22:16:29.153Z,20.21
2022-11-01T22:21:21.487Z,20.21
2022-11-01T22:26:14.080Z,20.18
2022-11-01T22:31:06.561Z,20.18
2022-11-01T22:35:59.126Z,20.17
2022-11-01T22:40:51.651Z,20.18
2022-11-01T22:45:44.215Z,20.15
2022-11-01T22:50:36.787Z,20.13
2022-11-01T22:55:29.283Z,20.12
2022-11-01T23:00:21.794Z,20.13
2022-11-01T23:05:14.582Z,20.13
2022-11-01T23:10:07.086Z,20.1
2022-11-01T23:14:59.638Z,20.08
2022-11-01T23:19:52.246Z,20.09
2022-11-01T23:24:44.627Z,20.07
2022-11-01T23:29:37.110Z,20.07
2022-11-01T23:34:29.632Z,20.06
2022-11-01T23:39:22.049Z,20.02
2022-11-01T23:44:14.751Z,20.02
2022-11-01T23:49:07.147Z,20.03
2022-11-01T23:53:59.678Z,20.02
2022-11-01T23:58:51.974Z,20
